Time;durP1;ratioP1;P1;durP2;ratioP2;P2;SDS_P1;SDS_P2;PMS_P1;PMS_P2;Temp;Humidity;BMP_temperature;BMP_pressure;BME280_temperature;BME280_humidity;BME280_pressure;Samples;Min_cycle;Max_cycle;Signal;HPM_P1;HPM_P2
2023/06/06 00:02:04;;;;;;;;;;;;;;;;;;5054865;28;714;-67
2023/06/06 00:04:30;;;;;;;;;;;;;;;;;;5045584;28;1297;-66
2023/06/06 00:06:56;;;;;;;;;;;;;;;;;;5033576;28;877;-66
2023/06/06 00:09:22;;;;;;;;;;;;;;;;;;5032089;28;841;-66
2023/06/06 00:11:48;;;;;;;;;;;;;;;;;;5032020;28;885;-66
2023/06/06 00:14:18;;;;;;;;;;;;;;;;;;5032122;28;790;-66
2023/06/06 00:16:48;;;;;;;;;;;;;;;;;;5033743;28;1910;-66
2023/06/06 00:19:15;;;;;;;;;;;;;;;;;;5032933;28;900;-66
2023/06/06 00:21:41;;;;;;;;;;;;;;;;;;5031265;28;784;-66
2023/06/06 00:24:06;;;;;;;;;;;;;;;;;;5033154;28;1040;-66
2023/06/06 00:26:31;;;;;;;;;;;;;;;;;;5033352;28;1035;-66
2023/06/06 00:28:56;;;;;;;;;;;;;;;;;;5032970;28;889;-66
2023/06/06 00:31:22;;;;;;;;;;;;;;;;;;5032880;28;842;-66
2023/06/06 00:33:47;;;;;;;;;;;;;;;;;;5031542;28;1189;-66
2023/06/06 00:36:12;;;;;;;;;;;;;;;;;;5031660;28;1294;-66
2023/06/06 00:38:37;;;;;;;;;;;;;;;;;;5033528;28;1907;-66
2023/06/06 00:41:03;;;;;;;;;;;;;;;;;;5033071;28;841;-67
2023/06/06 00:43:28;;;;;;;;;;;;;;;;;;5032733;28;869;-66
2023/06/06 00:45:53;;;;;;;;;;;;;;;;;;5031962;28;846;-66
2023/06/06 00:48:20;;;;;;;;;;;;;;;;;;5031581;28;889;-66
2023/06/06 00:50:47;;;;;;;;;;;;;;;;;;5033532;28;805;-67
2023/06/06 00:53:12;;;;;;;;;;;;;;;;;;5031934;28;896;-66
2023/06/06 00:55:38;;;;;;;;;;;;;;;;;;5033316;28;1486;-66
2023/06/06 00:58:04;;;;;;;;;;;;;;;;;;5032478;28;1938;-67
2023/06/06 01:00:32;;;;;;;;;;;;;;;;;;5032257;28;1227;-66
2023/06/06 01:02:59;;;;;;;;;;;;;;;;;;5032591;28;1342;-67
2023/06/06 01:05:25;;;;;;;;;;;;;;;;;;5060956;28;1236;-66
2023/06/06 01:07:53;;;;;;;;;;;;;;;;;;5073799;28;818;-66
2023/06/06 01:10:19;;;;;;;;;;;;;;;;;;5072437;28;829;-65
2023/06/06 01:12:56;;;;;;;;;;;;;;;;;;5055085;28;1089;-66
2023/06/06 01:15:21;;;;;;;;;;;;;;;;;;5054333;28;1100;-65
2023/06/06 01:17:48;;;;;;;;;;;;;;;;;;5071979;28;1981;-65
2023/06/06 01:20:14;;;;;;;;;;;;;;;;;;5037707;28;1247;-66
2023/06/06 01:22:43;;;;;;;;;;;;;;;;;;5071894;28;927;-66
2023/06/06 01:25:09;;;;;;;;;;;;;;;;;;5071592;28;924;-66
2023/06/06 01:27:35;;;;;;;;;;;;;;;;;;5037486;28;1315;-66
2023/06/06 01:30:01;;;;;;;;;;;;;;;;;;5054095;28;810;-67
2023/06/06 01:32:30;;;;;;;;;;;;;;;;;;5053091;28;1077;-66
2023/06/06 01:35:13;;;;;;;;;;;;;;;;;;5053148;28;1527;-65
2023/06/06 01:37:48;;;;;;;;;;;;;;;;;;5071956;28;1945;-65
2023/06/06 01:40:15;;;;;;;;;;;;;;;;;;5053713;28;1298;-65
2023/06/06 01:42:43;;;;;;;;;;;;;;;;;;5072136;28;856;-65
2023/06/06 01:45:09;;;;;;;;;;;;;;;;;;5071409;28;915;-65
2023/06/06 01:47:35;;;;;;;;;;;;;;;;;;5053745;28;1062;-65
2023/06/06 01:50:03;;;;;;;;;;;;;;;;;;5053461;28;1268;-65
2023/06/06 01:52:28;;;;;;;;;;;;;;;;;;5071040;28;908;-65
2023/06/06 01:54:55;;;;;;;;;;;;;;;;;;5071899;28;806;-65
2023/06/06 01:57:20;;;;;;;;;;;;;;;;;;5070778;28;1901;-66
2023/06/06 01:59:45;;;;;;;;;;;;;;;;;;5053586;28;834;-65
2023/06/06 02:02:11;;;;;;;;;;;;;;;;;;5053393;28;1104;-66
2023/06/06 02:04:37;;;;;;;;;;;;;;;;;;5053572;28;1216;-65
2023/06/06 02:07:02;;;;;;;;;;;;;;;;;;5053401;28;1628;-65
2023/06/06 02:09:28;;;;;;;;;;;;;;;;;;5071011;28;873;-65
2023/06/06 02:11:53;;;;;;;;;;;;;;;;;;5071769;28;833;-65
2023/06/06 02:14:18;;;;;;;;;;;;;;;;;;5052911;28;912;-65
2023/06/06 02:16:48;;;;;;;;;;;;;;;;;;5053715;28;1906;-65
2023/06/06 02:19:13;;;;;;;;;;;;;;;;;;5071338;28;963;-65
2023/06/06 02:21:38;;;;;;;;;;;;;;;;;;5053347;28;1300;-65
2023/06/06 02:24:04;;;;;;;;;;;;;;;;;;5071931;28;1008;-65
2023/06/06 02:26:31;;;;;;;;;;;;;;;;;;5052732;28;1184;-66
2023/06/06 02:28:57;;;;;;;;;;;;;;;;;;5053682;28;841;-66
2023/06/06 02:31:26;;;;;;;;;;;;;;;;;;5070964;28;848;-65
2023/06/06 02:33:51;;;;;;;;;;;;;;;;;;5071848;28;825;-65
2023/06/06 02:36:17;;;;;;;;;;;;;;;;;;5071870;28;884;-66
2023/06/06 02:38:42;;;;;;;;;;;;;;;;;;5071785;28;1961;-65
2023/06/06 02:41:07;;;;;;;;;;;;;;;;;;5053383;28;1298;-67
2023/06/06 02:43:35;;;;;;;;;;;;;;;;;;5053804;28;920;-66
2023/06/06 02:46:00;;;;;;;;;;;;;;;;;;5056002;28;1289;-66
2023/06/06 02:48:26;;;;;;;;;;;;;;;;;;5056782;28;848;-66
2023/06/06 02:50:52;;;;;;;;;;;;;;;;;;5058115;28;899;-66
2023/06/06 02:53:18;;;;;;;;;;;;;;;;;;5075551;28;892;-66
2023/06/06 02:55:43;;;;;;;;;;;;;;;;;;5057635;28;797;-66
2023/06/06 02:58:27;;;;;;;;;;;;;;;;;;5057203;28;1910;-67
2023/06/06 03:00:53;;;;;;;;;;;;;;;;;;5057282;28;1205;-66
2023/06/06 03:03:18;;;;;;;;;;;;;;;;;;5057229;28;1228;-66
2023/06/06 03:05:43;;;;;;;;;;;;;;;;;;5074916;28;1250;-66
2023/06/06 03:08:08;;;;;;;;;;;;;;;;;;5056847;28;959;-66
2023/06/06 03:10:34;;;;;;;;;;;;;;;;;;5074060;28;817;-66
2023/06/06 03:12:59;;;;;;;;;;;;;;;;;;5074562;28;833;-66
2023/06/06 03:15:25;;;;;;;;;;;;;;;;;;5073937;28;876;-65
2023/06/06 03:17:50;;;;;;;;;;;;;;;;;;5074376;28;1910;-65
2023/06/06 03:20:16;;;;;;;;;;;;;;;;;;5056463;28;889;-65
2023/06/06 03:22:42;;;;;;;;;;;;;;;;;;5056839;28;941;-65
2023/06/06 03:25:07;;;;;;;;;;;;;;;;;;5074684;28;758;-66
2023/06/06 03:27:32;;;;;;;;;;;;;;;;;;5055761;28;967;-65
2023/06/06 03:29:57;;;;;;;;;;;;;;;;;;5074521;28;833;-65
2023/06/06 03:32:23;;;;;;;;;;;;;;;;;;5039367;28;1494;-66
2023/06/06 03:34:49;;;;;;;;;;;;;;;;;;5055501;28;1379;-67
2023/06/06 03:37:14;;;;;;;;;;;;;;;;;;5056452;28;1902;-65
2023/06/06 03:39:40;;;;;;;;;;;;;;;;;;5039629;28;1524;-65
2023/06/06 03:42:06;;;;;;;;;;;;;;;;;;5056015;28;1373;-66
2023/06/06 03:44:31;;;;;;;;;;;;;;;;;;5038917;28;874;-66
2023/06/06 03:46:57;;;;;;;;;;;;;;;;;;5056174;28;904;-66
2023/06/06 03:49:22;;;;;;;;;;;;;;;;;;5055492;28;1318;-66
2023/06/06 03:51:47;;;;;;;;;;;;;;;;;;5055979;28;667;-66
2023/06/06 03:54:13;;;;;;;;;;;;;;;;;;5055376;28;1211;-66
2023/06/06 03:56:40;;;;;;;;;;;;;;;;;;5054580;28;1953;-66
2023/06/06 03:59:11;;;;;;;;;;;;;;;;;;5073781;28;834;-66
2023/06/06 04:01:36;;;;;;;;;;;;;;;;;;5072897;28;844;-66
2023/06/06 04:04:01;;;;;;;;;;;;;;;;;;5038792;28;1116;-66
2023/06/06 04:06:27;;;;;;;;;;;;;;;;;;5055524;28;825;-66
2023/06/06 04:08:52;;;;;;;;;;;;;;;;;;5073124;28;865;-66
2023/06/06 04:11:18;;;;;;;;;;;;;;;;;;5055086;28;987;-66
2023/06/06 04:13:43;;;;;;;;;;;;;;;;;;5055778;28;1038;-66
2023/06/06 04:16:08;;;;;;;;;;;;;;;;;;5038158;28;1272;-67
2023/06/06 04:18:33;;;;;;;;;;;;;;;;;;5037791;28;1985;-65
2023/06/06 04:20:59;;;;;;;;;;;;;;;;;;5055031;28;1463;-67
2023/06/06 04:23:24;;;;;;;;;;;;;;;;;;5038166;28;1367;-66
2023/06/06 04:25:50;;;;;;;;;;;;;;;;;;5055336;28;873;-66
2023/06/06 04:28:18;;;;;;;;;;;;;;;;;;5072958;28;833;-66
2023/06/06 04:30:45;;;;;;;;;;;;;;;;;;5038797;28;861;-66
2023/06/06 04:33:10;;;;;;;;;;;;;;;;;;5037834;28;1325;-66
2023/06/06 04:35:35;;;;;;;;;;;;;;;;;;5054975;28;813;-66
2023/06/06 04:38:01;;;;;;;;;;;;;;;;;;5054981;28;1967;-66
2023/06/06 04:40:32;;;;;;;;;;;;;;;;;;5055018;28;805;-66
2023/06/06 04:42:58;;;;;;;;;;;;;;;;;;5039915;28;1512;-66
2023/06/06 04:45:23;;;;;;;;;;;;;;;;;;5073090;28;844;-66
2023/06/06 04:47:49;;;;;;;;;;;;;;;;;;5055141;28;896;-66
2023/06/06 04:50:14;;;;;;;;;;;;;;;;;;5038717;28;1177;-66
2023/06/06 04:52:39;;;;;;;;;;;;;;;;;;5055125;28;820;-66
2023/06/06 04:55:07;;;;;;;;;;;;;;;;;;5073090;28;844;-66
2023/06/06 04:57:33;;;;;;;;;;;;;;;;;;5054708;28;1979;-66
2023/06/06 04:59:58;;;;;;;;;;;;;;;;;;5055250;28;853;-66
2023/06/06 05:02:28;;;;;;;;;;;;;;;;;;5072071;28;802;-66
2023/06/06 05:04:55;;;;;;;;;;;;;;;;;;5071953;28;1093;-66
2023/06/06 05:07:24;;;;;;;;;;;;;;;;;;5053905;28;1268;-66
2023/06/06 05:09:52;;;;;;;;;;;;;;;;;;5071600;28;794;-66
2023/06/06 05:12:18;;;;;;;;;;;;;;;;;;5053304;28;841;-66
2023/06/06 05:14:43;;;;;;;;;;;;;;;;;;5052957;28;1274;-66
2023/06/06 05:17:09;;;;;;;;;;;;;;;;;;5072694;28;1981;-65
2023/06/06 05:19:35;;;;;;;;;;;;;;;;;;5035697;28;1169;-66
2023/06/06 05:22:00;;;;;;;;;;;;;;;;;;5070728;28;1168;-66
2023/06/06 05:24:25;;;;;;;;;;;;;;;;;;5072602;28;961;-66
2023/06/06 05:26:51;;;;;;;;;;;;;;;;;;5053820;28;1294;-67
2023/06/06 05:29:16;;;;;;;;;;;;;;;;;;5053685;28;1385;-66
2023/06/06 05:31:41;;;;;;;;;;;;;;;;;;5053670;28;1233;-66
2023/06/06 05:34:07;;;;;;;;;;;;;;;;;;5053914;28;1468;-66
2023/06/06 05:36:32;;;;;;;;;;;;;;;;;;5071681;28;1906;-66
2023/06/06 05:38:58;;;;;;;;;;;;;;;;;;5071815;28;833;-66
2023/06/06 05:41:23;;;;;;;;;;;;;;;;;;5053681;28;901;-70
2023/06/06 05:43:50;;;;;;;;;;;;;;;;;;5053371;28;1314;-70
2023/06/06 05:46:15;;;;;;;;;;;;;;;;;;5053357;28;1587;-69
2023/06/06 05:48:41;;;;;;;;;;;;;;;;;;5053858;28;766;-70
2023/06/06 05:51:07;;;;;;;;;;;;;;;;;;5053642;28;829;-70
2023/06/06 05:53:32;;;;;;;;;;;;;;;;;;5053155;28;1500;-70
2023/06/06 05:55:58;;;;;;;;;;;;;;;;;;5053458;28;884;-69
2023/06/06 05:58:23;;;;;;;;;;;;;;;;;;5071223;28;1909;-70
2023/06/06 06:00:48;;;;;;;;;;;;;;;;;;5072135;28;1055;-70
2023/06/06 06:03:14;;;;;;;;;;;;;;;;;;5071803;28;841;-70
2023/06/06 06:05:40;;;;;;;;;;;;;;;;;;5036242;28;1086;-69
2023/06/06 06:08:06;;;;;;;;;;;;;;;;;;5053878;28;1121;-70
2023/06/06 06:10:32;;;;;;;;;;;;;;;;;;5071617;28;936;-70
2023/06/06 06:12:58;;;;;;;;;;;;;;;;;;5053135;28;1291;-69
2023/06/06 06:15:24;;;;;;;;;;;;;;;;;;5052984;28;1479;-70
2023/06/06 06:17:49;;;;;;;;;;;;;;;;;;5054216;28;1911;-70
2023/06/06 06:20:16;;;;;;;;;;;;;;;;;;5073744;28;861;-69
2023/06/06 06:22:41;;;;;;;;;;;;;;;;;;5076111;28;928;-70
2023/06/06 06:25:12;;;;;;;;;;;;;;;;;;5075735;28;817;-70
2023/06/06 06:27:38;;;;;;;;;;;;;;;;;;5076289;28;927;-70
2023/06/06 06:30:04;;;;;;;;;;;;;;;;;;5057454;28;1204;-70
2023/06/06 06:32:31;;;;;;;;;;;;;;;;;;5075830;28;844;-69
2023/06/06 06:34:56;;;;;;;;;;;;;;;;;;5075009;28;1058;-70
2023/06/06 06:37:21;;;;;;;;;;;;;;;;;;5056750;28;1910;-70
2023/06/06 06:39:48;;;;;;;;;;;;;;;;;;5040664;28;1391;-70
2023/06/06 06:42:13;;;;;;;;;;;;;;;;;;5040912;28;1225;-69
2023/06/06 06:44:39;;;;;;;;;;;;;;;;;;5077797;28;813;-69
2023/06/06 06:47:04;;;;;;;;;;;;;;;;;;5058962;28;1512;-69
2023/06/06 06:49:30;;;;;;;;;;;;;;;;;;5058596;28;930;-69
2023/06/06 06:51:56;;;;;;;;;;;;;;;;;;5058890;28;1589;-69
2023/06/06 06:54:22;;;;;;;;;;;;;;;;;;5077066;28;853;-68
2023/06/06 06:56:48;;;;;;;;;;;;;;;;;;5076952;28;1973;-69
2023/06/06 06:59:14;;;;;;;;;;;;;;;;;;5041924;28;830;-69
2023/06/06 07:01:40;;;;;;;;;;;;;;;;;;5076142;28;1310;-69
2023/06/06 07:04:06;;;;;;;;;;;;;;;;;;5075465;28;817;-69
2023/06/06 07:06:33;;;;;;;;;;;;;;;;;;5075612;28;1215;-70
2023/06/06 07:08:59;;;;;;;;;;;;;;;;;;5076377;28;904;-69
2023/06/06 07:11:24;;;;;;;;;;;;;;;;;;5075585;28;869;-69
2023/06/06 07:13:49;;;;;;;;;;;;;;;;;;5040300;28;1345;-70
2023/06/06 07:16:15;;;;;;;;;;;;;;;;;;5056721;28;853;-70
2023/06/06 07:18:41;;;;;;;;;;;;;;;;;;5057508;28;1902;-70
2023/06/06 07:21:06;;;;;;;;;;;;;;;;;;5056665;28;1199;-68
2023/06/06 07:23:32;;;;;;;;;;;;;;;;;;5074649;28;917;-68
2023/06/06 07:25:57;;;;;;;;;;;;;;;;;;5056660;28;880;-69
2023/06/06 07:28:24;;;;;;;;;;;;;;;;;;5056215;28;1192;-70
2023/06/06 07:30:50;;;;;;;;;;;;;;;;;;5056164;28;797;-71
2023/06/06 07:33:15;;;;;;;;;;;;;;;;;;5073355;28;947;-69
2023/06/06 07:35:42;;;;;;;;;;;;;;;;;;5055814;28;1333;-69
2023/06/06 07:38:07;;;;;;;;;;;;;;;;;;5055766;28;1965;-70
2023/06/06 07:40:32;;;;;;;;;;;;;;;;;;5074150;28;865;-70
2023/06/06 07:42:59;;;;;;;;;;;;;;;;;;5054786;28;956;-70
2023/06/06 07:45:24;;;;;;;;;;;;;;;;;;5074188;28;778;-70
2023/06/06 07:47:50;;;;;;;;;;;;;;;;;;5039326;28;1477;-70
2023/06/06 07:50:17;;;;;;;;;;;;;;;;;;5039781;28;1134;-70
2023/06/06 07:52:46;;;;;;;;;;;;;;;;;;5056467;28;881;-70
2023/06/06 07:55:11;;;;;;;;;;;;;;;;;;5057257;28;853;-70
2023/06/06 07:57:39;;;;;;;;;;;;;;;;;;5056184;28;1898;-70
2023/06/06 08:00:07;;;;;;;;;;;;;;;;;;5074201;28;904;-71
2023/06/06 08:02:32;;;;;;;;;;;;;;;;;;5056747;28;893;-70
2023/06/06 08:04:59;;;;;;;;;;;;;;;;;;5073843;28;1235;-70
2023/06/06 08:07:25;;;;;;;;;;;;;;;;;;5055762;28;1496;-70
2023/06/06 08:09:51;;;;;;;;;;;;;;;;;;5056289;28;1212;-70
2023/06/06 08:12:16;;;;;;;;;;;;;;;;;;5056501;28;1025;-70
2023/06/06 08:14:42;;;;;;;;;;;;;;;;;;5055141;28;1120;-70
2023/06/06 08:17:07;;;;;;;;;;;;;;;;;;5055540;28;1973;-70
2023/06/06 08:19:32;;;;;;;;;;;;;;;;;;5054985;28;1424;-70
2023/06/06 08:21:58;;;;;;;;;;;;;;;;;;5055410;28;778;-70
2023/06/06 08:24:23;;;;;;;;;;;;;;;;;;5055136;28;1290;-70
2023/06/06 08:26:49;;;;;;;;;;;;;;;;;;5073331;28;875;-70
2023/06/06 08:29:14;;;;;;;;;;;;;;;;;;5055622;28;778;-71
2023/06/06 08:31:40;;;;;;;;;;;;;;;;;;5074258;28;820;-70
2023/06/06 08:34:06;;;;;;;;;;;;;;;;;;5055647;28;868;-70
2023/06/06 08:36:31;;;;;;;;;;;;;;;;;;5073150;28;1003;-70
2023/06/06 08:38:56;;;;;;;;;;;;;;;;;;5054556;28;1954;-70
2023/06/06 08:41:23;;;;;;;;;;;;;;;;;;5038474;28;1244;-70
2023/06/06 08:43:49;;;;;;;;;;;;;;;;;;5054794;28;1081;-70
2023/06/06 08:46:16;;;;;;;;;;;;;;;;;;5054936;28;1133;-70
2023/06/06 08:48:43;;;;;;;;;;;;;;;;;;5070923;28;844;-69
2023/06/06 08:51:09;;;;;;;;;;;;;;;;;;5072770;28;876;-69
2023/06/06 08:53:35;;;;;;;;;;;;;;;;;;5072795;28;864;-70
2023/06/06 08:56:00;;;;;;;;;;;;;;;;;;5054317;28;875;-70
2023/06/06 08:58:27;;;;;;;;;;;;;;;;;;5054792;28;1989;-68
2023/06/06 09:00:55;;;;;;;;;;;;;;;;;;5072820;28;774;-69
2023/06/06 09:03:22;;;;;;;;;;;;;;;;;;5073188;28;841;-69
2023/06/06 09:05:49;;;;;;;;;;;;;;;;;;5071701;28;1062;-70
2023/06/06 09:08:16;;;;;;;;;;;;;;;;;;5053896;28;1257;-70
2023/06/06 09:10:42;;;;;;;;;;;;;;;;;;5071963;28;928;-70
2023/06/06 09:13:08;;;;;;;;;;;;;;;;;;5037453;28;1187;-70
2023/06/06 09:15:33;;;;;;;;;;;;;;;;;;5072297;28;872;-70
2023/06/06 09:17:58;;;;;;;;;;;;;;;;;;5072143;28;1913;-70
2023/06/06 09:20:24;;;;;;;;;;;;;;;;;;5072084;28;999;-70
2023/06/06 09:22:50;;;;;;;;;;;;;;;;;;5055049;28;908;-70
2023/06/06 09:25:19;;;;;;;;;;;;;;;;;;5056378;28;1326;-74
2023/06/06 09:27:45;;;;;;;;;;;;;;;;;;5073222;28;806;-70
2023/06/06 09:30:21;;;;;;;;;;;;;;;;;;5072680;28;935;-70
2023/06/06 09:32:50;;;;;;;;;;;;;;;;;;5072160;28;896;-70
2023/06/06 09:35:16;;;;;;;;;;;;;;;;;;5054743;28;1355;-70
2023/06/06 09:37:41;;;;;;;;;;;;;;;;;;5072951;28;1894;-69
2023/06/06 09:40:13;;;;;;;;;;;;;;;;;;5054902;28;991;-68
2023/06/06 09:42:40;;;;;;;;;;;;;;;;;;5072419;28;883;-69
2023/06/06 09:45:15;;;;;;;;;;;;;;;;;;5054403;28;1239;-70
2023/06/06 09:47:45;;;;;;;;;;;;;;;;;;5072301;28;844;-69
2023/06/06 09:50:11;;;;;;;;;;;;;;;;;;5072298;28;829;-69
2023/06/06 09:52:37;;;;;;;;;;;;;;;;;;5053892;28;896;-69
2023/06/06 09:55:06;;;;;;;;;;;;;;;;;;5053260;28;861;-68
2023/06/06 09:57:34;;;;;;;;;;;;;;;;;;5053706;28;1905;-69
2023/06/06 10:00:07;;;;;;;;;;;;;;;;;;5054234;28;1505;-69
2023/06/06 10:02:33;;;;;;;;;;;;;;;;;;5072995;28;690;-69
2023/06/06 10:04:58;;;;;;;;;;;;;;;;;;5053986;28;1319;-69
2023/06/06 10:07:24;;;;;;;;;;;;;;;;;;5072079;28;877;-70
2023/06/06 10:09:50;;;;;;;;;;;;;;;;;;5053646;28;1176;-70
2023/06/06 10:12:15;;;;;;;;;;;;;;;;;;5053680;28;1212;-69
2023/06/06 10:14:41;;;;;;;;;;;;;;;;;;5072039;28;848;-70
2023/06/06 10:17:09;;;;;;;;;;;;;;;;;;5071505;28;1922;-69
2023/06/06 10:19:36;;;;;;;;;;;;;;;;;;5071541;28;805;-68
2023/06/06 10:22:02;;;;;;;;;;;;;;;;;;5071110;28;825;-69
2023/06/06 10:24:28;;;;;;;;;;;;;;;;;;5053674;28;935;-69
2023/06/06 10:27:12;;;;;;;;;;;;;;;;;;5052781;28;1316;-69
2023/06/06 10:29:37;;;;;;;;;;;;;;;;;;5053229;28;1207;-69
2023/06/06 10:32:12;;;;;;;;;;;;;;;;;;5053428;28;871;-69
2023/06/06 10:34:40;;;;;;;;;;;;;;;;;;5070908;28;932;-70
2023/06/06 10:37:15;;;;;;;;;;;;;;;;;;5052903;28;1913;-69
2023/06/06 10:39:45;;;;;;;;;;;;;;;;;;5052912;28;1212;-69
2023/06/06 10:42:10;;;;;;;;;;;;;;;;;;5053350;28;1520;-69
2023/06/06 10:44:56;;;;;;;;;;;;;;;;;;5052865;28;1167;-69
2023/06/06 10:47:23;;;;;;;;;;;;;;;;;;5071126;28;951;-69
2023/06/06 10:50:07;;;;;;;;;;;;;;;;;;5070916;28;833;-70
2023/06/06 10:52:39;;;;;;;;;;;;;;;;;;5052181;28;1278;-69
2023/06/06 10:55:13;;;;;;;;;;;;;;;;;;5070874;28;967;-70
2023/06/06 10:57:41;;;;;;;;;;;;;;;;;;5070496;28;1889;-70
2023/06/06 11:00:09;;;;;;;;;;;;;;;;;;5070840;28;837;-70
2023/06/06 11:02:34;;;;;;;;;;;;;;;;;;5071059;28;809;-70
2023/06/06 11:05:00;;;;;;;;;;;;;;;;;;5070818;28;1089;-70
2023/06/06 11:07:31;;;;;;;;;;;;;;;;;;5055656;28;1058;-69
2023/06/06 11:09:56;;;;;;;;;;;;;;;;;;5057188;28;837;-69
2023/06/06 11:12:23;;;;;;;;;;;;;;;;;;5075228;28;832;-69
2023/06/06 11:14:54;;;;;;;;;;;;;;;;;;5075368;28;833;-69
2023/06/06 11:17:21;;;;;;;;;;;;;;;;;;5057263;28;1891;-70
2023/06/06 11:19:50;;;;;;;;;;;;;;;;;;5075323;28;872;-69
2023/06/06 11:22:25;;;;;;;;;;;;;;;;;;5075504;28;892;-69
2023/06/06 11:24:50;;;;;;;;;;;;;;;;;;5074470;28;1021;-70
2023/06/06 11:27:16;;;;;;;;;;;;;;;;;;5056322;28;893;-70
2023/06/06 11:29:41;;;;;;;;;;;;;;;;;;5055600;28;750;-69
2023/06/06 11:32:11;;;;;;;;;;;;;;;;;;5056308;28;1290;-69
2023/06/06 11:34:38;;;;;;;;;;;;;;;;;;5056333;28;687;-69
2023/06/06 11:37:06;;;;;;;;;;;;;;;;;;5074892;28;1969;-69
2023/06/06 11:39:31;;;;;;;;;;;;;;;;;;5056500;28;1112;-69
2023/06/06 11:41:57;;;;;;;;;;;;;;;;;;5056376;28;1169;-68
2023/06/06 11:44:30;;;;;;;;;;;;;;;;;;5056015;28;1215;-69
2023/06/06 11:46:55;;;;;;;;;;;;;;;;;;5073517;28;888;-69
2023/06/06 11:49:21;;;;;;;;;;;;;;;;;;5054360;28;698;-69
2023/06/06 11:52:00;;;;;;;;;;;;;;;;;;5073754;28;876;-69
2023/06/06 11:54:27;;;;;;;;;;;;;;;;;;5054701;28;1505;-69
2023/06/06 11:56:53;;;;;;;;;;;;;;;;;;5072651;28;1965;-69
2023/06/06 11:59:21;;;;;;;;;;;;;;;;;;5072922;28;900;-69
2023/06/06 12:01:52;;;;;;;;;;;;;;;;;;5058422;28;1219;-69
2023/06/06 12:04:18;;;;;;;;;;;;;;;;;;5076741;28;840;-69
2023/06/06 12:06:53;;;;;;;;;;;;;;;;;;5073631;28;1318;-69
2023/06/06 12:09:19;;;;;;;;;;;;;;;;;;5055493;28;1318;-69
2023/06/06 12:11:50;;;;;;;;;;;;;;;;;;5055540;28;1532;-68
2023/06/06 12:14:16;;;;;;;;;;;;;;;;;;5073411;28;908;-69
2023/06/06 12:16:41;;;;;;;;;;;;;;;;;;5055390;28;1361;-69
2023/06/06 12:19:14;;;;;;;;;;;;;;;;;;5072626;28;1902;-69
2023/06/06 12:21:43;;;;;;;;;;;;;;;;;;5073683;28;817;-69
2023/06/06 12:24:15;;;;;;;;;;;;;;;;;;5056094;28;954;-69
2023/06/06 12:26:53;;;;;;;;;;;;;;;;;;5039038;28;1236;-68
2023/06/06 12:29:18;;;;;;;;;;;;;;;;;;5055449;28;1082;-69
2023/06/06 12:31:45;;;;;;;;;;;;;;;;;;5073423;28;836;-69
2023/06/06 12:34:11;;;;;;;;;;;;;;;;;;5073570;28;825;-69
2023/06/06 12:36:37;;;;;;;;;;;;;;;;;;5074054;28;829;-70
2023/06/06 12:39:03;;;;;;;;;;;;;;;;;;5074637;28;1898;-69
2023/06/06 12:41:41;;;;;;;;;;;;;;;;;;5056342;28;864;-69
2023/06/06 12:44:11;;;;;;;;;;;;;;;;;;5073865;28;849;-69
2023/06/06 12:46:40;;;;;;;;;;;;;;;;;;5073165;28;932;-69
2023/06/06 12:49:06;;;;;;;;;;;;;;;;;;5038694;28;909;-69
2023/06/06 12:51:31;;;;;;;;;;;;;;;;;;5074707;28;821;-69
2023/06/06 12:53:57;;;;;;;;;;;;;;;;;;5054791;28;766;-69
2023/06/06 12:56:22;;;;;;;;;;;;;;;;;;5056548;28;967;-69
2023/06/06 12:58:47;;;;;;;;;;;;;;;;;;5073785;28;1910;-68
2023/06/06 13:01:13;;;;;;;;;;;;;;;;;;5056349;28;1282;-69
2023/06/06 13:03:38;;;;;;;;;;;;;;;;;;5074233;28;880;-68
2023/06/06 13:06:04;;;;;;;;;;;;;;;;;;5054963;28;1193;-68
2023/06/06 13:08:29;;;;;;;;;;;;;;;;;;5054488;28;909;-69
2023/06/06 13:10:55;;;;;;;;;;;;;;;;;;5053851;28;1298;-69
2023/06/06 13:13:23;;;;;;;;;;;;;;;;;;5072221;28;869;-68
2023/06/06 13:15:48;;;;;;;;;;;;;;;;;;5072278;28;849;-68
2023/06/06 13:18:13;;;;;;;;;;;;;;;;;;5054023;28;1967;-69
2023/06/06 13:20:40;;;;;;;;;;;;;;;;;;5054327;28;1310;-68
2023/06/06 13:23:05;;;;;;;;;;;;;;;;;;5072183;28;1049;-69
2023/06/06 13:25:31;;;;;;;;;;;;;;;;;;5055226;28;782;-70
2023/06/06 13:27:56;;;;;;;;;;;;;;;;;;5054030;28;837;-70
2023/06/06 13:30:22;;;;;;;;;;;;;;;;;;5053914;28;865;-70
2023/06/06 13:32:47;;;;;;;;;;;;;;;;;;5054485;28;892;-71
2023/06/06 13:35:13;;;;;;;;;;;;;;;;;;5054531;28;1322;-70
2023/06/06 13:37:38;;;;;;;;;;;;;;;;;;5071839;28;1961;-70
2023/06/06 13:40:04;;;;;;;;;;;;;;;;;;5037505;28;1324;-70
2023/06/06 13:42:29;;;;;;;;;;;;;;;;;;5037711;28;1239;-70
2023/06/06 13:44:55;;;;;;;;;;;;;;;;;;5072141;28;877;-70
2023/06/06 13:47:20;;;;;;;;;;;;;;;;;;5053186;28;845;-68
2023/06/06 13:49:45;;;;;;;;;;;;;;;;;;5036916;28;1511;-69
2023/06/06 13:52:11;;;;;;;;;;;;;;;;;;5053871;28;837;-69
2023/06/06 13:54:36;;;;;;;;;;;;;;;;;;5071587;28;813;-70
2023/06/06 13:57:02;;;;;;;;;;;;;;;;;;5053815;28;1906;-70
2023/06/06 13:59:28;;;;;;;;;;;;;;;;;;5071960;28;923;-70
2023/06/06 14:01:54;;;;;;;;;;;;;;;;;;5054296;28;1357;-70
2023/06/06 14:04:19;;;;;;;;;;;;;;;;;;5054075;28;1217;-70
2023/06/06 14:06:45;;;;;;;;;;;;;;;;;;5071943;28;1275;-69
2023/06/06 14:09:14;;;;;;;;;;;;;;;;;;5054332;28;1237;-69
2023/06/06 14:11:39;;;;;;;;;;;;;;;;;;5071991;28;908;-69
2023/06/06 14:14:05;;;;;;;;;;;;;;;;;;5053656;28;1224;-69
2023/06/06 14:16:31;;;;;;;;;;;;;;;;;;5053197;28;1105;-69
2023/06/06 14:18:56;;;;;;;;;;;;;;;;;;5036593;28;1914;-69
2023/06/06 14:21:56;;;;;;;;;;;;;;;;;;5053185;28;948;-68
2023/06/06 14:24:15;;;;;;;;;;;;;;;;;;5055178;28;948;-69
2023/06/06 14:26:41;;;;;;;;;;;;;;;;;;5034366;28;1343;-69
2023/06/06 14:29:06;;;;;;;;;;;;;;;;;;5051186;28;1185;-69
2023/06/06 14:31:32;;;;;;;;;;;;;;;;;;5051272;28;849;-69
2023/06/06 14:33:57;;;;;;;;;;;;;;;;;;5051267;28;1617;-69
2023/06/06 14:36:23;;;;;;;;;;;;;;;;;;5069340;28;995;-69
2023/06/06 14:38:48;;;;;;;;;;;;;;;;;;5051849;28;1942;-69
2023/06/06 14:41:14;;;;;;;;;;;;;;;;;;5072299;28;820;-69
2023/06/06 14:43:39;;;;;;;;;;;;;;;;;;5056807;28;1499;-69
2023/06/06 14:46:04;;;;;;;;;;;;;;;;;;5057294;28;1499;-70
2023/06/06 14:48:30;;;;;;;;;;;;;;;;;;5074665;28;892;-70
2023/06/06 14:50:55;;;;;;;;;;;;;;;;;;5056769;28;904;-69
2023/06/06 14:53:20;;;;;;;;;;;;;;;;;;5057180;28;1208;-70
2023/06/06 14:55:46;;;;;;;;;;;;;;;;;;5056780;28;1235;-70
2023/06/06 14:58:11;;;;;;;;;;;;;;;;;;5058354;28;1894;-69
2023/06/06 15:00:36;;;;;;;;;;;;;;;;;;5040864;28;1279;-68
2023/06/06 15:03:02;;;;;;;;;;;;;;;;;;5075798;28;840;-68
2023/06/06 15:05:28;;;;;;;;;;;;;;;;;;5057519;28;1347;-71
2023/06/06 15:07:53;;;;;;;;;;;;;;;;;;5041043;28;924;-69
2023/06/06 15:10:19;;;;;;;;;;;;;;;;;;5058009;28;1058;-69
2023/06/06 15:12:45;;;;;;;;;;;;;;;;;;5075383;28;892;-69
2023/06/06 15:15:11;;;;;;;;;;;;;;;;;;5057439;28;1194;-70
2023/06/06 15:17:36;;;;;;;;;;;;;;;;;;5075990;28;1909;-70
2023/06/06 15:20:02;;;;;;;;;;;;;;;;;;5087008;28;1140;-69
2023/06/06 15:22:27;;;;;;;;;;;;;;;;;;5060126;28;1279;-69
2023/06/06 15:24:53;;;;;;;;;;;;;;;;;;5095556;28;974;-69
2023/06/06 15:27:19;;;;;;;;;;;;;;;;;;5095729;28;910;-69
2023/06/06 15:29:46;;;;;;;;;;;;;;;;;;5095119;28;893;-69
2023/06/06 15:32:12;;;;;;;;;;;;;;;;;;5077421;28;1176;-70
2023/06/06 15:34:37;;;;;;;;;;;;;;;;;;5076568;28;1487;-69
2023/06/06 15:37:09;;;;;;;;;;;;;;;;;;5077229;28;1963;-69
2023/06/06 15:39:35;;;;;;;;;;;;;;;;;;5094072;28;809;-69
2023/06/06 15:42:00;;;;;;;;;;;;;;;;;;5076798;28;821;-69
2023/06/06 15:44:25;;;;;;;;;;;;;;;;;;5076892;28;1098;-69
2023/06/06 15:46:51;;;;;;;;;;;;;;;;;;5076175;28;778;-70
2023/06/06 15:49:17;;;;;;;;;;;;;;;;;;5094822;28;868;-69
2023/06/06 15:51:43;;;;;;;;;;;;;;;;;;5075736;28;931;-69
2023/06/06 15:54:09;;;;;;;;;;;;;;;;;;5074984;28;765;-69
2023/06/06 15:56:34;;;;;;;;;;;;;;;;;;5093805;28;833;-70
2023/06/06 15:59:00;;;;;;;;;;;;;;;;;;5075973;28;1969;-70
2023/06/06 16:01:26;;;;;;;;;;;;;;;;;;5094086;28;840;-69
2023/06/06 16:03:52;;;;;;;;;;;;;;;;;;5075418;28;1256;-69
2023/06/06 16:06:17;;;;;;;;;;;;;;;;;;5094077;28;1107;-69
2023/06/06 16:08:43;;;;;;;;;;;;;;;;;;5058745;28;1216;-69
2023/06/06 16:11:08;;;;;;;;;;;;;;;;;;5094043;28;738;-69
2023/06/06 16:13:34;;;;;;;;;;;;;;;;;;5075978;28;825;-69
2023/06/06 16:15:59;;;;;;;;;;;;;;;;;;5059132;28;1351;-69
2023/06/06 16:18:25;;;;;;;;;;;;;;;;;;5094009;28;1917;-69
2023/06/06 16:20:50;;;;;;;;;;;;;;;;;;5075140;28;1097;-69
2023/06/06 16:23:16;;;;;;;;;;;;;;;;;;5075299;28;918;-69
2023/06/06 16:25:41;;;;;;;;;;;;;;;;;;5093385;28;801;-69
2023/06/06 16:28:07;;;;;;;;;;;;;;;;;;5093602;28;860;-69
2023/06/06 16:30:32;;;;;;;;;;;;;;;;;;5058981;28;749;-69
2023/06/06 16:32:58;;;;;;;;;;;;;;;;;;5093715;28;840;-69
2023/06/06 16:35:24;;;;;;;;;;;;;;;;;;5093663;28;951;-69
2023/06/06 16:37:50;;;;;;;;;;;;;;;;;;5093252;28;1897;-69
2023/06/06 16:40:15;;;;;;;;;;;;;;;;;;5075874;28;1392;-69
2023/06/06 16:42:44;;;;;;;;;;;;;;;;;;5093617;28;877;-68
2023/06/06 16:45:10;;;;;;;;;;;;;;;;;;5076092;28;853;-68
2023/06/06 16:47:35;;;;;;;;;;;;;;;;;;5075144;28;1208;-68
2023/06/06 16:50:00;;;;;;;;;;;;;;;;;;5075072;28;1406;-68
2023/06/06 16:52:26;;;;;;;;;;;;;;;;;;5093935;28;900;-69
2023/06/06 16:54:51;;;;;;;;;;;;;;;;;;5093380;28;1078;-68
2023/06/06 16:57:16;;;;;;;;;;;;;;;;;;5075696;28;1909;-69
2023/06/06 16:59:42;;;;;;;;;;;;;;;;;;5074590;28;1222;-69
2023/06/06 17:02:07;;;;;;;;;;;;;;;;;;5075033;28;875;-69
2023/06/06 17:04:32;;;;;;;;;;;;;;;;;;5057762;28;1244;-68
2023/06/06 17:06:58;;;;;;;;;;;;;;;;;;5073130;28;1220;-68
2023/06/06 17:09:24;;;;;;;;;;;;;;;;;;5074315;28;1235;-68